Time;durP1;ratioP1;P1;durP2;ratioP2;P2;SDS_P1;SDS_P2;PMS_P1;PMS_P2;Temp;Humidity;BMP_temperature;BMP_pressure;BME280_temperature;BME280_humidity;BME280_pressure;Samples;Min_cycle;Max_cycle;Signal;HPM_P1;HPM_P2
2022/03/17 00:00:33;;;;;;;35.88;27.20;;;10.60;99.90;;;;;;4917455;29;20052;-50
2022/03/17 00:02:59;;;;;;;37.20;25.75;;;10.60;99.90;;;;;;4916466;29;20028;-43
2022/03/17 00:05:24;;;;;;;33.53;25.63;;;10.60;99.90;;;;;;4917387;29;20029;-46
2022/03/17 00:07:50;;;;;;;34.85;25.73;;;10.60;99.90;;;;;;4915599;29;20232;-46
2022/03/17 00:10:16;;;;;;;39.63;26.52;;;10.60;99.90;;;;;;4917390;29;20031;-45
2022/03/17 00:12:44;;;;;;;34.65;26.73;;;10.60;99.90;;;;;;4917616;29;20024;-42
2022/03/17 00:15:09;;;;;;;36.45;27.33;;;10.50;99.90;;;;;;4917143;29;20480;-47
2022/03/17 00:17:35;;;;;;;34.95;26.20;;;10.50;99.90;;;;;;4916223;29;20036;-50
2022/03/17 00:20:02;;;;;;;34.00;26.90;;;10.40;99.90;;;;;;4916948;29;20080;-47
2022/03/17 00:22:28;;;;;;;32.03;25.65;;;10.50;99.90;;;;;;4916838;29;20024;-47
2022/03/17 00:24:54;;;;;;;39.13;26.90;;;10.40;99.90;;;;;;4916590;29;20024;-46
2022/03/17 00:27:20;;;;;;;36.75;28.02;;;10.40;99.90;;;;;;4916406;29;20078;-42
2022/03/17 00:29:46;;;;;;;34.88;27.90;;;10.40;99.90;;;;;;4916700;29;20444;-48
2022/03/17 00:32:12;;;;;;;32.30;26.77;;;10.30;99.90;;;;;;4916642;29;20024;-51
2022/03/17 00:35:35;;;;;;;38.47;26.92;;;10.30;99.90;;;;;;4916687;29;20039;-48
2022/03/17 00:37:24;;;;;;;;;;;10.30;99.90;;;;;;4916760;29;20035;-49
2022/03/17 00:39:49;;;;;;;;;;;10.40;99.90;;;;;;4917351;29;19914;-45
2022/03/17 00:42:15;;;;;;;35.50;27.08;;;10.40;99.90;;;;;;4916591;29;19907;-45
2022/03/17 00:44:41;;;;;;;35.88;25.23;;;10.30;99.90;;;;;;4916518;29;20488;-48
2022/03/17 00:47:07;;;;;;;36.40;28.08;;;10.30;99.90;;;;;;4915879;29;20042;-46
2022/03/17 00:49:33;;;;;;;37.92;27.02;;;10.40;99.90;;;;;;4916334;29;20055;-42
2022/03/17 00:51:58;;;;;;;37.92;28.75;;;10.40;99.90;;;;;;4916609;29;20036;-49
2022/03/17 00:54:24;;;;;;;44.13;29.30;;;10.30;99.90;;;;;;4916459;29;20063;-47
2022/03/17 00:56:49;;;;;;;38.22;28.38;;;10.30;99.90;;;;;;4916153;29;20506;-48
2022/03/17 00:59:15;;;;;;;40.67;30.08;;;10.30;99.90;;;;;;4916034;29;20021;-48
2022/03/17 01:01:40;;;;;;;37.22;27.95;;;10.30;99.90;;;;;;4916561;29;20046;-45
2022/03/17 01:04:06;;;;;;;36.03;29.13;;;10.30;99.90;;;;;;4916261;29;20091;-46
2022/03/17 01:06:31;;;;;;;42.70;30.23;;;10.30;99.90;;;;;;4916162;29;20032;-46
2022/03/17 01:08:57;;;;;;;36.13;28.70;;;10.30;99.90;;;;;;4915882;29;20047;-47
2022/03/17 01:11:22;;;;;;;38.08;29.83;;;10.30;99.90;;;;;;4916248;29;20024;-45
2022/03/17 01:13:48;;;;;;;37.45;27.80;;;10.30;99.90;;;;;;4916171;29;20036;-46
2022/03/17 01:16:15;;;;;;;36.30;27.77;;;10.30;99.90;;;;;;4916212;29;20031;-45
2022/03/17 01:18:40;;;;;;;36.55;29.25;;;10.20;99.90;;;;;;4916453;29;20448;-47
2022/03/17 01:21:06;;;;;;;41.45;29.17;;;10.20;99.90;;;;;;4916219;29;20024;-49
2022/03/17 01:23:32;;;;;;;39.22;28.70;;;10.20;99.90;;;;;;4916209;29;20020;-50
2022/03/17 01:25:58;;;;;;;35.88;28.20;;;10.30;99.90;;;;;;4916176;29;20040;-46
2022/03/17 01:28:23;;;;;;;38.20;29.95;;;10.30;99.90;;;;;;4916087;29;20377;-44
2022/03/17 01:30:50;;;;;;;35.25;27.42;;;10.30;99.90;;;;;;4916226;29;20036;-49
2022/03/17 01:33:16;;;;;;;42.17;30.38;;;10.20;99.90;;;;;;4916265;29;20051;-43
2022/03/17 01:35:41;;;;;;;37.95;29.45;;;10.30;99.90;;;;;;4915888;29;20064;-46
2022/03/17 01:38:07;;;;;;;41.47;30.08;;;10.30;99.90;;;;;;4915895;29;20480;-48
2022/03/17 01:40:32;;;;;;;38.95;29.88;;;10.20;99.90;;;;;;4916151;29;20032;-46
2022/03/17 01:42:58;;;;;;;38.15;29.90;;;10.30;99.90;;;;;;4916090;29;20428;-49
2022/03/17 01:45:26;;;;;;;40.42;30.00;;;10.30;99.90;;;;;;4916299;29;20050;-46
2022/03/17 01:47:51;;;;;;;42.45;30.98;;;10.30;99.90;;;;;;4915902;29;20159;-51
2022/03/17 01:50:17;;;;;;;38.40;29.38;;;10.20;99.90;;;;;;4916261;29;20115;-47
2022/03/17 01:52:44;;;;;;;36.97;28.05;;;10.20;99.90;;;;;;4916090;29;20036;-46
2022/03/17 01:55:11;;;;;;;36.78;28.95;;;10.20;99.90;;;;;;4916506;29;20035;-42
2022/03/17 01:57:39;;;;;;;39.30;29.88;;;10.20;99.90;;;;;;4915908;29;20507;-45
2022/03/17 02:00:07;;;;;;;40.85;30.63;;;10.20;99.90;;;;;;4919386;29;20183;-48
2022/03/17 02:02:33;;;;;;;40.22;29.83;;;10.20;99.90;;;;;;4919714;29;20108;-45
2022/03/17 02:04:59;;;;;;;37.38;29.23;;;10.10;99.90;;;;;;4919985;29;20056;-48
2022/03/17 02:07:24;;;;;;;39.92;29.65;;;10.10;99.90;;;;;;4919231;29;20036;-45
2022/03/17 02:09:50;;;;;;;40.03;30.55;;;10.10;99.90;;;;;;4920070;29;20126;-46
2022/03/17 02:15:04;;;;;;;85.65;59.03;;;10.20;99.90;;;;;;4919892;29;20079;-45
2022/03/17 02:17:31;;;;;;;134.95;80.03;;;10.20;99.90;;;;;;4919244;29;20028;-46
2022/03/17 02:20:01;;;;;;;42.85;32.78;;;10.20;99.90;;;;;;4919840;29;20032;-41
2022/03/17 02:22:28;;;;;;;36.45;28.92;;;10.20;99.90;;;;;;4920799;29;20272;-49
2022/03/17 02:27:47;;;;;;;40.40;30.38;;;10.20;99.90;;;;;;4918098;29;20038;-45
2022/03/17 02:30:15;;;;;;;40.33;30.00;;;10.10;99.90;;;;;;4918651;29;20437;-46
2022/03/17 02:32:41;;;;;;;39.22;30.77;;;10.10;99.90;;;;;;4918784;29;20043;-47
2022/03/17 02:35:13;;;;;;;40.58;29.65;;;10.10;99.90;;;;;;4918670;29;20024;-47
2022/03/17 02:37:39;;;;;;;38.58;30.23;;;10.10;99.90;;;;;;4918200;29;20118;-47
2022/03/17 02:40:07;;;;;;;37.03;29.95;;;10.00;99.90;;;;;;4918452;29;20028;-50
2022/03/17 02:42:33;;;;;;;36.50;29.55;;;10.00;99.90;;;;;;4918230;29;20063;-47
2022/03/17 02:45:00;;;;;;;35.38;28.90;;;10.00;99.90;;;;;;4918316;29;20032;-43
2022/03/17 02:47:27;;;;;;;40.90;32.30;;;10.00;99.90;;;;;;4917911;29;20495;-47
2022/03/17 02:49:56;;;;;;;36.80;29.10;;;10.00;99.90;;;;;;4918307;29;20032;-47
2022/03/17 02:52:23;;;;;;;37.65;29.52;;;10.00;99.90;;;;;;4918614;29;20056;-50
2022/03/17 02:54:50;;;;;;;40.05;30.65;;;10.10;99.90;;;;;;4918164;29;20032;-42
2022/03/17 02:57:16;;;;;;;43.08;30.95;;;10.00;99.90;;;;;;4917847;29;20476;-45
2022/03/17 02:59:42;;;;;;;41.45;30.73;;;9.90;99.90;;;;;;4918275;29;20024;-48
2022/03/17 03:02:08;;;;;;;39.63;30.17;;;9.90;99.90;;;;;;4918060;29;20024;-48
2022/03/17 03:04:33;;;;;;;42.65;29.45;;;9.90;99.90;;;;;;4918417;29;20370;-50
2022/03/17 03:09:27;;;;;;;41.88;29.40;;;9.90;99.90;;;;;;4896934;29;20056;-44
2022/03/17 03:11:52;;;;;;;39.17;30.55;;;9.90;99.90;;;;;;4900481;29;20075;-44
2022/03/17 03:14:18;;;;;;;42.45;30.83;;;9.90;99.90;;;;;;4901327;29;20108;-48
2022/03/17 03:16:44;;;;;;;43.40;32.55;;;9.90;99.90;;;;;;4915439;29;20386;-47
2022/03/17 03:19:10;;;;;;;40.20;30.45;;;9.80;99.90;;;;;;4915252;29;20168;-44
2022/03/17 03:21:35;;;;;;;40.50;30.92;;;9.80;99.90;;;;;;4900275;29;20032;-44
2022/03/17 03:24:01;;;;;;;42.17;32.10;;;9.90;99.90;;;;;;4900364;29;20028;-44
2022/03/17 03:26:26;;;;;;;45.58;31.67;;;9.90;99.90;;;;;;4900624;29;20028;-45
2022/03/17 03:28:54;;;;;;;40.60;31.55;;;10.00;99.90;;;;;;4904001;29;20032;-39
2022/03/17 03:31:21;;;;;;;41.38;31.33;;;9.90;99.90;;;;;;4905324;29;20100;-45
2022/03/17 03:33:46;;;;;;;44.33;32.25;;;9.80;99.90;;;;;;4904564;29;20024;-50
2022/03/17 03:38:57;;;;;;;44.47;31.75;;;9.70;99.90;;;;;;4902942;29;20092;-41
2022/03/17 03:41:22;;;;;;;43.38;32.17;;;9.70;99.90;;;;;;4902206;29;20049;-46
2022/03/17 03:43:48;;;;;;;41.55;31.55;;;9.70;99.90;;;;;;4901499;29;20037;-45
2022/03/17 03:46:14;;;;;;;41.60;31.95;;;9.70;99.90;;;;;;4900905;29;20045;-46
2022/03/17 03:48:40;;;;;;;41.33;31.30;;;9.60;99.90;;;;;;4900850;29;20028;-44
2022/03/17 03:51:06;;;;;;;41.03;31.55;;;9.60;99.90;;;;;;4896541;29;20032;-46
2022/03/17 03:56:15;;;;;;;39.70;30.35;;;9.50;99.90;;;;;;4897765;29;20559;-45
2022/03/17 03:58:41;;;;;;;43.60;31.95;;;9.50;99.90;;;;;;4897340;29;20028;-48
2022/03/17 04:01:06;;;;;;;44.20;32.85;;;9.40;99.90;;;;;;4897672;29;20028;-45
2022/03/17 04:03:32;;;;;;;43.35;31.40;;;9.40;99.90;;;;;;4897455;29;20037;-52
2022/03/17 04:05:57;;;;;;;39.88;31.25;;;9.50;99.90;;;;;;4897403;29;20035;-45
2022/03/17 04:08:23;;;;;;;40.53;30.23;;;9.50;99.90;;;;;;4896870;29;20037;-44
2022/03/17 04:10:48;;;;;;;42.63;31.25;;;9.60;99.90;;;;;;4897634;29;20035;-52
2022/03/17 04:13:14;;;;;;;41.05;30.50;;;9.70;99.90;;;;;;4897360;29;20025;-49
2022/03/17 04:15:39;;;;;;;40.03;30.92;;;9.70;99.90;;;;;;4897212;29;20088;-47
2022/03/17 04:18:05;;;;;;;38.33;29.40;;;9.80;99.90;;;;;;4896867;29;20145;-51
2022/03/17 04:20:30;;;;;;;39.05;30.33;;;9.70;99.90;;;;;;4897348;29;20408;-45
2022/03/17 04:22:56;;;;;;;41.72;31.05;;;9.70;99.90;;;;;;4896449;29;20052;-42
2022/03/17 04:25:22;;;;;;;37.05;29.45;;;9.50;99.90;;;;;;4897140;29;20100;-44
2022/03/17 04:27:47;;;;;;;39.33;30.77;;;9.50;99.90;;;;;;4896733;29;20046;-50
2022/03/17 04:30:13;;;;;;;38.97;30.13;;;9.60;99.90;;;;;;4897073;29;20040;-51
2022/03/17 04:32:38;;;;;;;40.00;31.13;;;9.50;99.90;;;;;;4897052;29;20091;-41
2022/03/17 04:35:04;;;;;;;40.55;30.67;;;9.50;99.90;;;;;;4897360;29;20028;-49
2022/03/17 04:37:30;;;;;;;40.45;29.98;;;9.50;99.90;;;;;;4896685;29;20028;-47
2022/03/17 04:39:56;;;;;;;40.10;31.17;;;9.50;99.90;;;;;;4896978;29;20064;-48
2022/03/17 04:42:21;;;;;;;40.00;30.50;;;9.50;99.90;;;;;;4897003;29;20053;-43
2022/03/17 04:44:47;;;;;;;42.45;30.42;;;9.70;99.90;;;;;;4896941;29;20052;-44
2022/03/17 04:47:13;;;;;;;40.65;29.70;;;9.70;99.90;;;;;;4896371;29;20036;-47
2022/03/17 04:49:38;;;;;;;38.25;29.52;;;9.70;99.90;;;;;;4896740;29;20111;-49
2022/03/17 04:53:27;;;;;;;41.80;31.30;;;9.60;99.90;;;;;;4895810;29;20035;-45
2022/03/17 04:54:49;;;;;;;41.40;31.17;;;9.60;99.90;;;;;;4896531;29;20499;-40
2022/03/17 04:57:15;;;;;;;43.50;30.25;;;9.60;99.90;;;;;;4896341;29;20032;-44
2022/03/17 04:59:40;;;;;;;40.42;31.20;;;9.60;99.90;;;;;;4895238;29;20029;-45
2022/03/17 05:02:06;;;;;;;39.42;30.80;;;9.60;99.90;;;;;;4895379;29;20540;-45
2022/03/17 05:04:32;;;;;;;44.33;30.92;;;9.50;99.90;;;;;;4897039;29;20041;-51
2022/03/17 05:06:57;;;;;;;40.00;30.48;;;9.60;99.90;;;;;;4896426;29;20063;-48
2022/03/17 05:09:24;;;;;;;40.97;31.10;;;9.50;99.90;;;;;;4896110;29;20086;-47
2022/03/17 05:11:49;;;;;;;43.05;32.03;;;9.50;99.90;;;;;;4896603;29;20025;-50
2022/03/17 05:14:15;;;;;;;43.60;30.38;;;9.50;99.90;;;;;;4895218;29;20434;-44
2022/03/17 05:16:40;;;;;;;40.88;30.77;;;9.50;99.90;;;;;;4896494;29;20033;-48
2022/03/17 05:19:06;;;;;;;38.28;30.50;;;9.50;99.90;;;;;;4895303;29;20048;-48
2022/03/17 05:21:32;;;;;;;41.22;31.23;;;9.50;99.90;;;;;;4896526;29;20038;-46
2022/03/17 05:23:58;;;;;;;41.60;30.25;;;9.50;99.90;;;;;;4896733;29;20060;-50
2022/03/17 05:26:23;;;;;;;40.50;30.40;;;9.50;99.90;;;;;;4896276;29;20064;-42
2022/03/17 05:28:49;;;;;;;44.13;30.55;;;9.50;99.90;;;;;;4896056;29;20441;-46
2022/03/17 05:31:14;;;;;;;44.20;28.92;;;9.50;99.90;;;;;;4896273;29;20028;-47
2022/03/17 05:33:40;;;;;;;43.10;31.83;;;9.50;99.90;;;;;;4898667;29;20032;-46
2022/03/17 05:36:05;;;;;;;40.35;31.35;;;9.50;99.90;;;;;;4900435;29;20417;-47
2022/03/17 05:38:31;;;;;;;41.97;31.15;;;9.60;99.90;;;;;;4899661;29;20044;-50
2022/03/17 05:40:57;;;;;;;39.20;30.30;;;9.60;99.90;;;;;;4900032;29;20029;-48
2022/03/17 05:43:23;;;;;;;41.95;31.80;;;9.50;99.90;;;;;;4900168;29;20027;-40
2022/03/17 05:45:49;;;;;;;39.42;29.77;;;9.40;99.90;;;;;;4899842;29;20033;-47
2022/03/17 05:48:14;;;;;;;39.15;30.23;;;9.50;99.90;;;;;;4900177;29;20123;-44
2022/03/17 05:50:42;;;;;;;41.97;29.60;;;9.40;99.90;;;;;;4900241;29;20446;-44
2022/03/17 05:53:08;;;;;;;41.10;30.70;;;9.50;99.90;;;;;;4899991;29;20397;-40
2022/03/17 05:55:34;;;;;;;41.00;31.67;;;9.40;99.90;;;;;;4900416;29;20111;-55
2022/03/17 05:58:01;;;;;;;44.55;32.60;;;9.40;99.90;;;;;;4899721;29;20017;-48
2022/03/17 06:00:28;;;;;;;42.55;32.40;;;9.40;99.90;;;;;;4899577;29;20020;-45
2022/03/17 06:02:54;;;;;;;38.78;29.42;;;9.50;99.90;;;;;;4899636;29;20028;-45
2022/03/17 06:05:20;;;;;;;46.08;31.60;;;9.50;99.90;;;;;;4899577;29;20032;-40
2022/03/17 06:07:48;;;;;;;41.08;31.75;;;9.50;99.90;;;;;;4899060;29;20036;-46
2022/03/17 06:10:26;;;;;;;41.90;32.15;;;9.50;99.90;;;;;;4899565;29;20063;-47
2022/03/17 06:12:53;;;;;;;39.97;30.63;;;9.50;99.90;;;;;;4899443;29;20095;-47
2022/03/17 06:15:20;;;;;;;38.17;28.80;;;9.50;99.90;;;;;;4899491;29;20488;-47
2022/03/17 06:17:48;;;;;;;38.85;29.48;;;9.40;99.90;;;;;;4899370;29;20033;-44
2022/03/17 06:20:20;;;;;;;41.88;32.13;;;9.40;99.90;;;;;;4899665;29;20020;-44
2022/03/17 06:22:48;;;;;;;43.60;33.33;;;9.50;99.90;;;;;;4899166;29;20036;-42
2022/03/17 06:25:16;;;;;;;43.42;36.22;;;9.50;99.90;;;;;;4898031;29;20025;-49
2022/03/17 06:27:43;;;;;;;42.50;30.40;;;9.50;99.90;;;;;;4899292;29;20052;-44
2022/03/17 06:30:12;;;;;;;42.25;29.63;;;9.60;99.90;;;;;;4899390;29;20028;-45
2022/03/17 06:32:40;;;;;;;40.28;28.77;;;9.60;99.90;;;;;;4899488;29;20044;-48
2022/03/17 06:35:13;;;;;;;39.97;30.45;;;9.60;99.90;;;;;;4899501;29;20025;-43
2022/03/17 06:37:39;;;;;;;41.90;29.75;;;9.60;99.90;;;;;;4898542;29;20033;-44
2022/03/17 06:40:06;;;;;;;39.75;30.05;;;9.50;99.90;;;;;;4899107;29;20196;-44
2022/03/17 06:42:31;;;;;;;39.97;31.17;;;9.50;99.90;;;;;;4898992;29;20115;-47
2022/03/17 06:44:57;;;;;;;40.65;30.38;;;9.50;99.90;;;;;;4898107;29;20449;-46
2022/03/17 06:47:22;;;;;;;43.05;30.08;;;9.50;99.90;;;;;;4898553;29;20040;-47
2022/03/17 06:49:48;;;;;;;37.95;29.10;;;9.50;99.90;;;;;;4898771;29;20036;-45
2022/03/17 06:52:13;;;;;;;47.70;33.17;;;9.50;99.90;;;;;;4898491;29;20044;-43
2022/03/17 06:54:39;;;;;;;38.63;29.30;;;9.60;99.90;;;;;;4898711;29;20039;-47
2022/03/17 06:57:04;;;;;;;40.50;29.50;;;9.80;99.90;;;;;;4898737;29;20065;-44
2022/03/17 06:59:30;;;;;;;40.65;30.15;;;9.80;99.90;;;;;;4898404;29;20042;-42
2022/03/17 07:01:55;;;;;;;37.55;28.13;;;9.80;99.90;;;;;;4898667;29;20025;-46
2022/03/17 07:04:21;;;;;;;40.33;30.00;;;9.80;99.90;;;;;;4897309;29;20060;-47
2022/03/17 07:06:46;;;;;;;44.65;28.90;;;9.80;99.90;;;;;;4898472;29;20143;-47
2022/03/17 07:09:13;;;;;;;35.10;28.42;;;9.70;99.90;;;;;;4898165;29;20067;-44
2022/03/17 07:11:39;;;;;;;44.45;31.92;;;9.70;99.90;;;;;;4898694;29;20025;-45
2022/03/17 07:14:04;;;;;;;40.00;30.08;;;9.80;99.90;;;;;;4898456;29;20037;-44
2022/03/17 07:16:30;;;;;;;49.60;30.65;;;9.80;99.90;;;;;;4898146;29;20032;-45
2022/03/17 07:18:55;;;;;;;39.63;29.38;;;9.90;99.90;;;;;;4898224;29;20032;-48
2022/03/17 07:21:21;;;;;;;45.33;29.52;;;10.00;99.90;;;;;;4898433;29;20091;-46
2022/03/17 07:23:47;;;;;;;39.90;30.17;;;10.10;99.90;;;;;;4898708;29;20473;-45
2022/03/17 07:26:12;;;;;;;37.15;29.15;;;10.10;99.90;;;;;;4898521;29;20621;-46
2022/03/17 07:28:38;;;;;;;38.60;28.73;;;10.10;99.90;;;;;;4896817;29;20033;-45
2022/03/17 07:31:03;;;;;;;36.75;28.70;;;10.00;99.90;;;;;;4898293;29;20085;-47
2022/03/17 07:33:29;;;;;;;41.65;29.13;;;10.00;99.90;;;;;;4898188;29;20047;-46
2022/03/17 07:35:54;;;;;;;38.08;28.50;;;10.00;99.90;;;;;;4897902;29;20508;-44
2022/03/17 07:38:20;;;;;;;41.45;30.77;;;10.10;99.90;;;;;;4897716;29;20035;-42
2022/03/17 07:40:46;;;;;;;41.00;29.20;;;10.10;99.90;;;;;;4898063;29;20028;-49
2022/03/17 07:43:12;;;;;;;41.13;31.02;;;10.10;99.90;;;;;;4897865;29;20024;-41
2022/03/17 07:45:38;;;;;;;40.45;29.92;;;10.10;99.90;;;;;;4897919;29;20085;-46
2022/03/17 07:48:05;;;;;;;44.92;30.48;;;10.00;99.90;;;;;;4897758;29;20035;-51
2022/03/17 07:50:32;;;;;;;39.40;29.90;;;10.00;99.90;;;;;;4898015;29;20053;-45
2022/03/17 07:52:58;;;;;;;38.22;28.77;;;10.00;99.90;;;;;;4897969;29;20318;-45
2022/03/17 07:55:23;;;;;;;39.22;30.30;;;10.00;99.90;;;;;;4898039;29;20270;-45
2022/03/17 07:57:49;;;;;;;38.83;30.70;;;10.00;99.90;;;;;;4897125;29;20426;-48
2022/03/17 08:00:15;;;;;;;39.65;29.80;;;10.00;99.90;;;;;;4897464;29;20080;-47
2022/03/17 08:02:42;;;;;;;37.22;29.27;;;10.00;99.90;;;;;;4898266;29;20033;-46
2022/03/17 08:05:08;;;;;;;36.72;28.60;;;10.00;99.90;;;;;;4898331;29;20480;-49
2022/03/17 08:07:34;;;;;;;38.70;28.73;;;10.00;99.90;;;;;;4897758;29;20052;-47
2022/03/17 08:09:59;;;;;;;34.78;28.38;;;10.10;99.90;;;;;;4897893;29;20099;-45
2022/03/17 08:12:30;;;;;;;35.45;28.05;;;10.20;99.90;;;;;;4897599;29;20029;-40
2022/03/17 08:14:56;;;;;;;38.50;28.25;;;10.30;99.90;;;;;;4897606;29;20024;-44
2022/03/17 08:17:21;;;;;;;41.63;29.38;;;10.40;99.90;;;;;;4896906;29;20112;-46
2022/03/17 08:19:47;;;;;;;38.75;29.35;;;10.40;99.90;;;;;;4897299;29;20028;-50
2022/03/17 08:22:13;;;;;;;38.72;28.15;;;10.40;99.90;;;;;;4897300;29;20507;-45
2022/03/17 08:24:38;;;;;;;37.90;29.02;;;10.40;99.90;;;;;;4896181;29;20283;-48
2022/03/17 08:27:05;;;;;;;41.60;28.52;;;10.40;99.90;;;;;;4897223;29;20516;-49
2022/03/17 08:29:31;;;;;;;38.05;28.83;;;10.50;99.90;;;;;;4896927;29;20081;-46
2022/03/17 08:31:57;;;;;;;36.75;28.65;;;10.50;99.90;;;;;;4897391;29;20384;-49
2022/03/17 08:34:22;;;;;;;35.05;28.45;;;10.60;99.90;;;;;;4896977;29;20032;-43
2022/03/17 08:36:50;;;;;;;37.70;28.10;;;10.60;99.90;;;;;;4897208;29;20031;-51
2022/03/17 08:39:15;;;;;;;35.30;27.92;;;10.70;99.90;;;;;;4896908;29;20030;-44
2022/03/17 08:41:41;;;;;;;37.80;27.10;;;10.70;99.90;;;;;;4897520;29;20399;-45
2022/03/17 08:44:06;;;;;;;33.78;27.13;;;10.80;99.90;;;;;;4896863;29;20024;-44
2022/03/17 08:49:19;;;;;;;35.20;27.52;;;10.90;99.90;;;;;;4900047;29;20099;-41
2022/03/17 08:51:46;;;;;;;32.20;25.95;;;10.90;99.90;;;;;;4898825;29;20036;-49
2022/03/17 08:54:11;;;;;;;37.17;27.35;;;10.90;99.90;;;;;;4899957;29;20043;-46
2022/03/17 08:56:37;;;;;;;36.70;27.13;;;11.00;99.90;;;;;;4900213;29;20088;-47
2022/03/17 08:59:04;;;;;;;35.08;26.17;;;11.00;99.90;;;;;;4899740;29;20071;-48
2022/03/17 09:01:29;;;;;;;35.83;26.98;;;11.00;99.90;;;;;;4896777;29;20088;-49
2022/03/17 09:03:55;;;;;;;36.38;26.77;;;10.90;99.90;;;;;;4896723;29;20025;-53
2022/03/17 09:06:22;;;;;;;34.63;26.88;;;11.00;99.90;;;;;;4896768;29;20445;-46
2022/03/17 09:08:48;;;;;;;45.75;27.40;;;11.00;99.90;;;;;;4926924;23;20048;-45
2022/03/17 09:11:14;;;;;;;39.97;28.23;;;11.00;99.90;;;;;;4936067;29;20035;-51
2022/03/17 09:13:40;;;;;;;40.95;27.77;;;11.10;99.90;;;;;;4935694;29;20040;-41
2022/03/17 09:16:06;;;;;;;39.33;26.98;;;11.20;99.90;;;;;;4934891;29;20066;-49
2022/03/17 09:18:32;;;;;;;34.42;26.35;;;11.10;99.90;;;;;;4932137;29;20115;-43
2022/03/17 09:20:59;;;;;;;33.38;26.17;;;11.20;99.90;;;;;;4916775;29;20457;-45
2022/03/17 09:23:25;;;;;;;39.28;26.98;;;11.20;99.90;;;;;;4916426;29;20389;-44
2022/03/17 09:25:51;;;;;;;31.48;24.85;;;11.20;99.90;;;;;;4915820;29;20034;-48
2022/03/17 09:28:16;;;;;;;37.30;25.38;;;11.20;99.90;;;;;;4915959;29;20036;-48
2022/03/17 09:30:42;;;;;;;30.73;25.48;;;11.30;99.90;;;;;;4916317;29;20062;-44
2022/03/17 09:33:09;;;;;;;42.60;27.60;;;11.20;99.90;;;;;;4916194;29;20440;-48
2022/03/17 09:35:34;;;;;;;31.98;25.15;;;11.20;99.90;;;;;;4916101;29;20318;-45
2022/03/17 09:38:01;;;;;;;33.63;25.77;;;11.30;99.90;;;;;;4915799;29;20115;-46
2022/03/17 09:40:26;;;;;;;35.35;26.02;;;11.40;99.90;;;;;;4915830;29;20059;-46
2022/03/17 09:43:18;;;;;;;32.38;25.55;;;11.40;99.90;;;;;;4916150;29;20489;-44
2022/03/17 09:45:41;;;;;;;30.23;23.75;;;11.50;99.90;;;;;;4915935;29;20111;-45
2022/03/17 09:48:09;;;;;;;36.75;27.73;;;11.50;99.90;;;;;;4915414;29;20564;-43
2022/03/17 09:50:36;;;;;;;37.88;29.45;;;11.60;99.90;;;;;;4916081;29;20433;-47
2022/03/17 09:53:02;;;;;;;31.67;25.83;;;11.60;99.90;;;;;;4915989;29;20067;-46
2022/03/17 09:55:27;;;;;;;37.08;24.90;;;11.70;99.90;;;;;;4915599;29;20056;-49
2022/03/17 09:57:53;;;;;;;29.08;23.48;;;11.70;99.90;;;;;;4915204;29;20024;-47
2022/03/17 10:00:19;;;;;;;31.08;24.73;;;11.80;99.90;;;;;;4916144;29;20063;-47
2022/03/17 10:02:44;;;;;;;30.45;24.05;;;11.80;99.90;;;;;;4915613;29;20032;-45
2022/03/17 10:05:11;;;;;;;29.45;23.98;;;11.80;99.90;;;;;;4915842;29;20052;-48
2022/03/17 10:07:37;;;;;;;30.85;23.67;;;11.80;99.90;;;;;;4915747;29;20089;-45
2022/03/17 10:10:04;;;;;;;30.55;24.75;;;11.90;99.90;;;;;;4915666;29;20111;-46
2022/03/17 10:12:32;;;;;;;33.42;24.65;;;11.90;99.90;;;;;;4915459;29;20131;-46
2022/03/17 10:14:58;;;;;;;33.67;25.48;;;11.90;99.90;;;;;;4915719;29;20531;-48
2022/03/17 10:17:30;;;;;;;33.33;25.00;;;11.80;99.90;;;;;;4915168;29;20036;-42
2022/03/17 10:20:15;;;;;;;29.88;24.40;;;11.70;99.90;;;;;;4915763;29;20391;-46
2022/03/17 10:22:48;;;;;;;28.30;23.25;;;11.70;99.90;;;;;;4918740;29;20122;-50
2022/03/17 10:25:19;;;;;;;29.95;24.33;;;11.60;99.90;;;;;;4918911;29;20020;-45
2022/03/17 10:27:45;;;;;;;33.25;23.27;;;11.60;99.90;;;;;;4918429;29;20031;-43
2022/03/17 10:30:12;;;;;;;29.45;23.52;;;11.60;99.90;;;;;;4919089;29;20032;-44
2022/03/17 10:32:38;;;;;;;34.88;25.98;;;11.60;99.90;;;;;;4918749;29;20028;-43
2022/03/17 10:35:08;;;;;;;34.38;25.67;;;11.60;99.90;;;;;;4919162;29;20024;-49
2022/03/17 10:37:36;;;;;;;39.55;26.75;;;11.60;99.90;;;;;;4918400;29;20024;-49
2022/03/17 10:40:07;;;;;;;35.05;26.75;;;11.50;99.90;;;;;;4918797;29;20024;-46
2022/03/17 10:42:33;;;;;;;40.97;26.90;;;11.60;99.90;;;;;;4918964;29;20507;-44
2022/03/17 10:45:05;;;;;;;40.45;27.00;;;11.50;99.90;;;;;;4918681;29;20098;-47
2022/03/17 10:47:38;;;;;;;36.53;26.52;;;11.50;99.90;;;;;;4918288;29;20433;-44
2022/03/17 10:50:16;;;;;;;31.20;24.40;;;11.50;99.90;;;;;;4918735;29;20043;-47
2022/03/17 10:53:00;;;;;;;34.33;26.02;;;11.50;99.90;;;;;;4917247;29;20035;-41
2022/03/17 10:55:34;;;;;;;37.83;27.63;;;11.50;99.90;;;;;;4918535;29;20080;-41
2022/03/17 10:58:13;;;;;;;31.52;25.85;;;11.60;99.90;;;;;;4918088;29;20038;-45
2022/03/17 11:00:47;;;;;;;37.15;27.27;;;11.60;99.90;;;;;;4918123;29;20020;-53
2022/03/17 11:03:14;;;;;;;32.30;25.45;;;11.70;99.90;;;;;;4918073;29;20051;-46
2022/03/17 11:05:40;;;;;;;32.85;26.65;;;11.70;99.90;;;;;;4918376;29;20032;-45
2022/03/17 11:08:10;;;;;;;36.08;26.85;;;11.60;99.90;;;;;;4918319;29;20513;-44
2022/03/17 11:10:37;;;;;;;38.10;25.77;;;11.60;99.90;;;;;;4918016;29;20039;-46
2022/03/17 11:13:11;;;;;;;37.28;28.38;;;11.60;99.90;;;;;;4918905;29;20365;-44
2022/03/17 11:15:38;;;;;;;38.58;28.63;;;11.70;99.90;;;;;;4918825;29;20067;-44
2022/03/17 11:18:07;;;;;;;38.72;27.90;;;11.70;99.90;;;;;;4917701;29;20361;-47
2022/03/17 11:20:33;;;;;;;42.70;28.13;;;11.70;99.90;;;;;;4917892;29;20024;-44
2022/03/17 11:23:09;;;;;;;38.83;27.27;;;11.60;99.90;;;;;;4918397;29;20028;-45
2022/03/17 11:25:35;;;;;;;38.25;28.65;;;11.70;99.90;;;;;;4917018;29;20488;-43
2022/03/17 11:28:03;;;;;;;38.92;29.05;;;11.70;99.90;;;;;;4917699;29;20095;-45
2022/03/17 11:30:43;;;;;;;37.10;28.13;;;11.70;99.90;;;;;;4916304;29;20507;-44
2022/03/17 11:33:32;;;;;;;42.15;28.90;;;11.70;99.90;;;;;;4916469;29;20063;-44
2022/03/17 11:36:01;;;;;;;32.75;26.67;;;11.70;99.90;;;;;;4917771;29;20500;-42
2022/03/17 11:38:36;;;;;;;32.47;25.73;;;11.70;99.90;;;;;;4917722;29;20040;-46
2022/03/17 11:41:02;;;;;;;28.92;23.40;;;11.70;99.90;;;;;;4918242;29;20075;-45
2022/03/17 11:43:46;;;;;;;30.67;23.85;;;11.60;99.90;;;;;;4917552;29;20032;-45
2022/03/17 11:46:19;;;;;;;31.70;23.25;;;11.50;99.90;;;;;;4917505;29;20040;-44
2022/03/17 11:48:51;;;;;;;34.70;24.90;;;11.60;99.90;;;;;;4917334;29;20523;-45
2022/03/17 11:51:17;;;;;;;35.90;24.95;;;11.50;99.90;;;;;;4917866;29;20032;-45
2022/03/17 11:53:45;;;;;;;36.78;25.48;;;11.40;99.90;;;;;;4917856;29;20032;-43
2022/03/17 11:56:32;;;;;;;39.03;24.88;;;11.30;99.90;;;;;;4917392;29;20038;-47
2022/03/17 11:58:58;;;;;;;33.80;24.08;;;11.10;99.90;;;;;;4916998;29;20031;-50
2022/03/17 12:01:34;;;;;;;61.95;38.70;;;11.00;99.90;;;;;;4917244;29;20028;-46
2022/03/17 12:04:01;;;;;;;39.70;26.30;;;10.90;99.90;;;;;;4917249;29;20485;-45
2022/03/17 12:06:31;;;;;;;37.95;24.55;;;10.80;99.90;;;;;;4917766;29;20096;-41
2022/03/17 12:09:11;;;;;;;36.75;23.77;;;10.80;99.90;;;;;;4916725;29;20036;-43
2022/03/17 12:11:43;;;;;;;33.28;22.65;;;10.80;99.90;;;;;;4917121;29;20032;-46
2022/03/17 12:14:16;;;;;;;36.05;23.65;;;10.60;99.90;;;;;;4916151;29;20133;-42
2022/03/17 12:16:51;;;;;;;34.03;21.65;;;10.50;99.90;;;;;;4916095;29;20127;-46
2022/03/17 12:19:36;;;;;;;34.28;21.88;;;10.60;99.90;;;;;;4914847;29;20397;-44
2022/03/17 12:22:03;;;;;;;34.63;22.00;;;10.50;99.90;;;;;;4915776;29;20520;-43
2022/03/17 12:25:12;;;;;;;35.42;21.95;;;10.30;99.90;;;;;;4916330;29;20026;-42
2022/03/17 12:27:39;;;;;;;30.73;20.80;;;10.40;99.90;;;;;;4915998;29;20074;-43
2022/03/17 12:30:13;;;;;;;32.97;21.25;;;10.40;99.90;;;;;;4916325;29;20055;-46
2022/03/17 12:32:55;;;;;;;32.05;21.90;;;10.50;99.90;;;;;;4940668;29;21084;-45
2022/03/17 12:35:30;;;;;;;35.13;22.17;;;10.60;99.90;;;;;;4915686;29;20075;-45
2022/03/17 12:38:01;;;;;;;26.10;21.58;;;10.60;99.90;;;;;;4938117;28;20119;-46
2022/03/17 12:40:30;;;;;;;29.65;22.02;;;10.50;99.90;;;;;;4913572;29;20056;-44
2022/03/17 12:42:56;;;;;;;27.33;21.58;;;10.60;99.90;;;;;;4914962;29;20033;-46
2022/03/17 12:45:24;;;;;;;31.52;20.80;;;10.50;99.90;;;;;;4915930;29;20401;-42
2022/03/17 12:47:56;;;;;;;26.42;19.75;;;10.40;99.90;;;;;;4915977;29;20020;-40